sensor_id;sensor_type;location;lat;lon;timestamp;P1;durP1;ratioP1;P2;durP2;ratioP2
50443;SDS011;36370;52.216;21.142;2022-12-07T00:03:44;82.32;;;44.00;;
50443;SDS011;36370;52.216;21.142;2022-12-07T00:07:47;89.88;;;43.67;;
50443;SDS011;36370;52.216;21.142;2022-12-07T00:11:51;88.88;;;44.35;;
50443;SDS011;36370;52.216;21.142;2022-12-07T00:15:53;92.47;;;43.33;;
50443;SDS011;36370;52.216;21.142;2022-12-07T00:19:55;98.97;;;48.30;;
50443;SDS011;36370;52.216;21.142;2022-12-07T00:23:58;103.85;;;48.65;;
50443;SDS011;36370;52.216;21.142;2022-12-07T00:28:00;100.25;;;48.45;;
50443;SDS011;36370;52.216;21.142;2022-12-07T00:32:02;92.78;;;45.65;;
50443;SDS011;36370;52.216;21.142;2022-12-07T00:36:06;108.43;;;49.65;;
50443;SDS011;36370;52.216;21.142;2022-12-07T00:40:10;106.55;;;51.35;;
50443;SDS011;36370;52.216;21.142;2022-12-07T00:44:12;105.38;;;49.60;;
50443;SDS011;36370;52.216;21.142;2022-12-07T00:48:14;103.60;;;50.00;;
50443;SDS011;36370;52.216;21.142;2022-12-07T00:52:16;94.25;;;47.35;;
50443;SDS011;36370;52.216;21.142;2022-12-07T00:56:19;81.70;;;42.95;;
50443;SDS011;36370;52.216;21.142;2022-12-07T01:00:29;92.22;;;44.13;;
50443;SDS011;36370;52.216;21.142;2022-12-07T01:04:33;78.20;;;39.30;;
50443;SDS011;36370;52.216;21.142;2022-12-07T01:08:35;79.25;;;40.13;;
50443;SDS011;36370;52.216;21.142;2022-12-07T01:12:37;89.93;;;43.83;;
50443;SDS011;36370;52.216;21.142;2022-12-07T01:16:39;82.90;;;43.90;;
50443;SDS011;36370;52.216;21.142;2022-12-07T01:20:41;90.97;;;44.47;;
50443;SDS011;36370;52.216;21.142;2022-12-07T01:24:43;95.32;;;44.85;;
50443;SDS011;36370;52.216;21.142;2022-12-07T01:28:45;94.78;;;43.42;;
50443;SDS011;36370;52.216;21.142;2022-12-07T01:32:48;93.93;;;48.20;;
50443;SDS011;36370;52.216;21.142;2022-12-07T01:36:50;103.40;;;50.10;;
50443;SDS011;36370;52.216;21.142;2022-12-07T01:40:56;111.43;;;51.13;;
50443;SDS011;36370;52.216;21.142;2022-12-07T01:49:42;103.68;;;50.05;;
50443;SDS011;36370;52.216;21.142;2022-12-07T01:53:47;105.05;;;50.03;;
50443;SDS011;36370;52.216;21.142;2022-12-07T01:57:50;109.93;;;52.30;;
50443;SDS011;36370;52.216;21.142;2022-12-07T02:01:54;100.68;;;51.13;;
50443;SDS011;36370;52.216;21.142;2022-12-07T02:05:57;101.78;;;52.85;;
50443;SDS011;36370;52.216;21.142;2022-12-07T02:10:14;119.60;;;56.33;;
50443;SDS011;36370;52.216;21.142;2022-12-07T02:14:19;107.00;;;50.17;;
50443;SDS011;36370;52.216;21.142;2022-12-07T02:18:40;93.88;;;46.70;;
50443;SDS011;36370;52.216;21.142;2022-12-07T02:22:54;93.88;;;43.75;;
50443;SDS011;36370;52.216;21.142;2022-12-07T02:31:32;64.22;;;35.13;;
50443;SDS011;36370;52.216;21.142;2022-12-07T02:35:36;61.95;;;34.00;;
50443;SDS011;36370;52.216;21.142;2022-12-07T02:40:06;58.58;;;30.30;;
50443;SDS011;36370;52.216;21.142;2022-12-07T02:44:13;50.95;;;29.95;;
50443;SDS011;36370;52.216;21.142;2022-12-07T02:48:20;49.30;;;27.90;;
50443;SDS011;36370;52.216;21.142;2022-12-07T02:52:24;52.65;;;28.95;;
50443;SDS011;36370;52.216;21.142;2022-12-07T02:56:36;46.60;;;25.77;;
50443;SDS011;36370;52.216;21.142;2022-12-07T03:00:54;45.17;;;25.20;;
50443;SDS011;36370;52.216;21.142;2022-12-07T03:05:21;44.83;;;26.38;;
50443;SDS011;36370;52.216;21.142;2022-12-07T03:09:29;49.38;;;25.85;;
50443;SDS011;36370;52.216;21.142;2022-12-07T03:13:39;40.88;;;24.92;;
50443;SDS011;36370;52.216;21.142;2022-12-07T03:17:52;65.13;;;34.80;;
50443;SDS011;36370;52.216;21.142;2022-12-07T03:22:00;67.93;;;39.55;;
50443;SDS011;36370;52.216;21.142;2022-12-07T03:26:05;67.53;;;39.50;;
50443;SDS011;36370;52.216;21.142;2022-12-07T03:30:14;44.50;;;27.60;;
50443;SDS011;36370;52.216;21.142;2022-12-07T03:34:21;43.30;;;25.63;;
50443;SDS011;36370;52.216;21.142;2022-12-07T03:39:00;43.30;;;24.65;;
50443;SDS011;36370;52.216;21.142;2022-12-07T03:43:13;41.03;;;22.75;;
50443;SDS011;36370;52.216;21.142;2022-12-07T03:47:16;47.80;;;25.52;;
50443;SDS011;36370;52.216;21.142;2022-12-07T03:51:37;41.13;;;24.20;;
50443;SDS011;36370;52.216;21.142;2022-12-07T03:55:44;41.53;;;23.77;;
50443;SDS011;36370;52.216;21.142;2022-12-07T03:59:48;41.20;;;23.52;;
50443;SDS011;36370;52.216;21.142;2022-12-07T04:03:51;37.42;;;22.17;;
50443;SDS011;36370;52.216;21.142;2022-12-07T04:07:53;31.48;;;18.98;;
50443;SDS011;36370;52.216;21.142;2022-12-07T04:11:55;33.95;;;19.50;;
50443;SDS011;36370;52.216;21.142;2022-12-07T04:15:57;30.50;;;17.45;;
50443;SDS011;36370;52.216;21.142;2022-12-07T04:19:59;30.50;;;19.45;;
50443;SDS011;36370;52.216;21.142;2022-12-07T04:24:01;28.35;;;18.85;;
50443;SDS011;36370;52.216;21.142;2022-12-07T04:28:04;29.45;;;17.98;;
50443;SDS011;36370;52.216;21.142;2022-12-07T04:32:06;27.50;;;17.40;;
50443;SDS011;36370;52.216;21.142;2022-12-07T04:36:08;29.45;;;17.95;;
50443;SDS011;36370;52.216;21.142;2022-12-07T04:40:10;24.70;;;15.95;;
50443;SDS011;36370;52.216;21.142;2022-12-07T04:44:13;24.40;;;15.18;;
50443;SDS011;36370;52.216;21.142;2022-12-07T04:48:16;26.13;;;16.17;;
50443;SDS011;36370;52.216;21.142;2022-12-07T04:52:18;24.63;;;15.32;;
50443;SDS011;36370;52.216;21.142;2022-12-07T04:56:20;25.15;;;15.18;;
50443;SDS011;36370;52.216;21.142;2022-12-07T05:00:22;27.45;;;15.27;;
50443;SDS011;36370;52.216;21.142;2022-12-07T05:04:24;24.92;;;16.00;;
50443;SDS011;36370;52.216;21.142;2022-12-07T05:08:26;25.17;;;16.50;;
50443;SDS011;36370;52.216;21.142;2022-12-07T05:12:28;27.25;;;15.38;;
50443;SDS011;36370;52.216;21.142;2022-12-07T05:16:30;27.55;;;16.38;;
50443;SDS011;36370;52.216;21.142;2022-12-07T05:20:32;23.85;;;16.42;;
50443;SDS011;36370;52.216;21.142;2022-12-07T05:24:41;26.48;;;17.02;;
50443;SDS011;36370;52.216;21.142;2022-12-07T05:28:43;30.23;;;17.63;;
50443;SDS011;36370;52.216;21.142;2022-12-07T05:32:45;29.23;;;16.67;;
50443;SDS011;36370;52.216;21.142;2022-12-07T05:36:47;25.60;;;16.08;;
50443;SDS011;36370;52.216;21.142;2022-12-07T05:40:49;25.00;;;15.63;;
50443;SDS011;36370;52.216;21.142;2022-12-07T05:44:51;28.08;;;16.88;;
50443;SDS011;36370;52.216;21.142;2022-12-07T05:48:53;29.05;;;16.67;;
50443;SDS011;36370;52.216;21.142;2022-12-07T05:52:55;27.27;;;17.27;;
50443;SDS011;36370;52.216;21.142;2022-12-07T05:56:57;27.45;;;16.17;;
50443;SDS011;36370;52.216;21.142;2022-12-07T06:00:59;29.52;;;18.48;;
50443;SDS011;36370;52.216;21.142;2022-12-07T06:05:01;34.58;;;20.40;;
50443;SDS011;36370;52.216;21.142;2022-12-07T06:09:03;31.27;;;18.23;;
50443;SDS011;36370;52.216;21.142;2022-12-07T06:13:05;39.22;;;21.77;;
50443;SDS011;36370;52.216;21.142;2022-12-07T06:17:07;36.13;;;21.23;;
50443;SDS011;36370;52.216;21.142;2022-12-07T06:21:09;36.17;;;20.35;;
50443;SDS011;36370;52.216;21.142;2022-12-07T06:25:11;45.53;;;25.38;;
50443;SDS011;36370;52.216;21.142;2022-12-07T06:29:13;38.13;;;22.40;;
50443;SDS011;36370;52.216;21.142;2022-12-07T06:33:15;42.67;;;23.13;;
50443;SDS011;36370;52.216;21.142;2022-12-07T06:37:17;43.80;;;23.75;;
50443;SDS011;36370;52.216;21.142;2022-12-07T06:41:19;47.00;;;25.15;;
50443;SDS011;36370;52.216;21.142;2022-12-07T06:45:21;40.42;;;23.73;;
50443;SDS011;36370;52.216;21.142;2022-12-07T06:49:23;43.50;;;25.05;;
50443;SDS011;36370;52.216;21.142;2022-12-07T06:53:25;42.67;;;24.42;;
50443;SDS011;36370;52.216;21.142;2022-12-07T06:57:27;40.33;;;21.25;;
50443;SDS011;36370;52.216;21.142;2022-12-07T07:01:29;49.17;;;26.88;;
50443;SDS011;36370;52.216;21.142;2022-12-07T07:05:31;45.13;;;24.33;;
50443;SDS011;36370;52.216;21.142;2022-12-07T07:09:33;48.63;;;25.00;;
50443;SDS011;36370;52.216;21.142;2022-12-07T07:13:35;45.35;;;23.05;;
50443;SDS011;36370;52.216;21.142;2022-12-07T07:17:37;41.95;;;22.73;;
50443;SDS011;36370;52.216;21.142;2022-12-07T07:21:39;46.40;;;25.73;;
50443;SDS011;36370;52.216;21.142;2022-12-07T07:25:41;39.50;;;23.48;;
50443;SDS011;36370;52.216;21.142;2022-12-07T07:29:43;43.67;;;22.80;;
50443;SDS011;36370;52.216;21.142;2022-12-07T07:33:45;44.22;;;23.33;;
50443;SDS011;36370;52.216;21.142;2022-12-07T07:37:48;46.03;;;24.55;;
50443;SDS011;36370;52.216;21.142;2022-12-07T07:41:50;39.15;;;22.85;;
50443;SDS011;36370;52.216;21.142;2022-12-07T07:45:59;45.65;;;23.27;;
50443;SDS011;36370;52.216;21.142;2022-12-07T07:50:01;43.67;;;22.90;;
50443;SDS011;36370;52.216;21.142;2022-12-07T07:54:04;45.03;;;23.50;;
50443;SDS011;36370;52.216;21.142;2022-12-07T07:58:06;43.35;;;22.73;;
50443;SDS011;36370;52.216;21.142;2022-12-07T08:02:18;42.47;;;23.15;;
50443;SDS011;36370;52.216;21.142;2022-12-07T08:06:22;47.42;;;24.27;;
50443;SDS011;36370;52.216;21.142;2022-12-07T08:10:30;42.67;;;23.60;;
50443;SDS011;36370;52.216;21.142;2022-12-07T08:14:37;42.38;;;24.17;;
50443;SDS011;36370;52.216;21.142;2022-12-07T08:18:39;50.15;;;26.23;;
50443;SDS011;36370;52.216;21.142;2022-12-07T08:22:42;47.50;;;28.35;;
50443;SDS011;36370;52.216;21.142;2022-12-07T08:26:43;51.08;;;27.15;;
50443;SDS011;36370;52.216;21.142;2022-12-07T08:30:45;47.30;;;24.27;;
50443;SDS011;36370;52.216;21.142;2022-12-07T08:34:47;55.75;;;24.77;;
50443;SDS011;36370;52.216;21.142;2022-12-07T08:38:49;51.50;;;24.73;;
50443;SDS011;36370;52.216;21.142;2022-12-07T08:43:12;55.97;;;28.52;;
50443;SDS011;36370;52.216;21.142;2022-12-07T08:47:13;64.85;;;29.27;;
50443;SDS011;36370;52.216;21.142;2022-12-07T08:51:16;60.00;;;29.33;;
50443;SDS011;36370;52.216;21.142;2022-12-07T08:55:18;70.03;;;32.95;;
50443;SDS011;36370;52.216;21.142;2022-12-07T08:59:20;77.30;;;33.58;;
50443;SDS011;36370;52.216;21.142;2022-12-07T09:03:22;91.15;;;39.33;;
50443;SDS011;36370;52.216;21.142;2022-12-07T09:07:24;95.30;;;41.05;;
50443;SDS011;36370;52.216;21.142;2022-12-07T09:11:27;97.28;;;43.63;;
50443;SDS011;36370;52.216;21.142;2022-12-07T09:15:30;85.30;;;37.58;;
50443;SDS011;36370;52.216;21.142;2022-12-07T09:19:32;76.43;;;34.90;;
50443;SDS011;36370;52.216;21.142;2022-12-07T09:23:35;73.93;;;34.47;;
50443;SDS011;36370;52.216;21.142;2022-12-07T09:27:36;71.45;;;35.00;;
50443;SDS011;36370;52.216;21.142;2022-12-07T09:31:38;73.47;;;36.75;;
50443;SDS011;36370;52.216;21.142;2022-12-07T09:35:47;66.40;;;32.13;;
50443;SDS011;36370;52.216;21.142;2022-12-07T09:39:50;60.03;;;29.00;;
50443;SDS011;36370;52.216;21.142;2022-12-07T09:43:52;69.95;;;31.92;;
50443;SDS011;36370;52.216;21.142;2022-12-07T09:48:05;56.72;;;28.05;;
50443;SDS011;36370;52.216;21.142;2022-12-07T09:52:19;55.03;;;29.13;;
50443;SDS011;36370;52.216;21.142;2022-12-07T09:56:30;57.83;;;28.42;;
50443;SDS011;36370;52.216;21.142;2022-12-07T10:00:32;53.25;;;27.63;;
50443;SDS011;36370;52.216;21.142;2022-12-07T10:04:34;59.97;;;28.73;;
50443;SDS011;36370;52.216;21.142;2022-12-07T10:08:39;54.45;;;26.33;;
50443;SDS011;36370;52.216;21.142;2022-12-07T10:13:34;50.35;;;26.60;;
50443;SDS011;36370;52.216;21.142;2022-12-07T10:17:29;40.10;;;20.15;;
50443;SDS011;36370;52.216;21.142;2022-12-07T10:21:33;49.67;;;22.65;;
50443;SDS011;36370;52.216;21.142;2022-12-07T10:25:35;48.20;;;23.70;;
50443;SDS011;36370;52.216;21.142;2022-12-07T10:29:39;50.65;;;22.58;;
50443;SDS011;36370;52.216;21.142;2022-12-07T10:33:51;44.35;;;22.35;;
50443;SDS011;36370;52.216;21.142;2022-12-07T10:37:59;42.33;;;23.02;;
50443;SDS011;36370;52.216;21.142;2022-12-07T10:42:02;46.80;;;22.00;;
50443;SDS011;36370;52.216;21.142;2022-12-07T10:51:03;57.50;;;23.30;;
50443;SDS011;36370;52.216;21.142;2022-12-07T11:00:04;44.63;;;22.40;;
50443;SDS011;36370;52.216;21.142;2022-12-07T11:08:31;45.67;;;22.95;;
50443;SDS011;36370;52.216;21.142;2022-12-07T11:12:45;34.75;;;19.75;;
50443;SDS011;36370;52.216;21.142;2022-12-07T11:16:59;38.72;;;21.42;;
50443;SDS011;36370;52.216;21.142;2022-12-07T11:21:20;35.05;;;20.83;;
50443;SDS011;36370;52.216;21.142;2022-12-07T11:34:21;37.17;;;21.73;;
50443;SDS011;36370;52.216;21.142;2022-12-07T11:38:36;49.65;;;25.85;;
50443;SDS011;36370;52.216;21.142;2022-12-07T11:51:18;42.40;;;22.60;;
50443;SDS011;36370;52.216;21.142;2022-12-07T11:56:09;34.63;;;19.73;;
50443;SDS011;36370;52.216;21.142;2022-12-07T11:59:52;36.28;;;21.42;;
50443;SDS011;36370;52.216;21.142;2022-12-07T12:08:13;34.83;;;20.23;;
50443;SDS011;36370;52.216;21.142;2022-12-07T12:12:43;28.13;;;18.40;;
50443;SDS011;36370;52.216;21.142;2022-12-07T12:21:41;27.45;;;18.35;;
50443;SDS011;36370;52.216;21.142;2022-12-07T12:25:48;31.35;;;19.02;;
50443;SDS011;36370;52.216;21.142;2022-12-07T12:29:57;35.92;;;21.08;;
50443;SDS011;36370;52.216;21.142;2022-12-07T12:34:03;42.67;;;23.33;;
50443;SDS011;36370;52.216;21.142;2022-12-07T12:42:43;44.17;;;23.95;;
50443;SDS011;36370;52.216;21.142;2022-12-07T12:51:35;50.95;;;27.25;;
50443;SDS011;36370;52.216;21.142;2022-12-07T13:03:54;40.08;;;23.52;;
50443;SDS011;36370;52.216;21.142;2022-12-07T13:12:24;40.63;;;23.17;;
50443;SDS011;36370;52.216;21.142;2022-12-07T13:16:37;44.45;;;23.38;;
50443;SDS011;36370;52.216;21.142;2022-12-07T13:20:51;36.28;;;20.92;;
50443;SDS011;36370;52.216;21.142;2022-12-07T13:25:05;38.50;;;22.85;;
50443;SDS011;36370;52.216;21.142;2022-12-07T13:29:18;35.55;;;22.30;;
50443;SDS011;36370;52.216;21.142;2022-12-07T13:33:25;34.05;;;21.38;;
50443;SDS011;36370;52.216;21.142;2022-12-07T13:37:30;32.08;;;20.88;;
50443;SDS011;36370;52.216;21.142;2022-12-07T13:41:41;33.10;;;19.40;;
50443;SDS011;36370;52.216;21.142;2022-12-07T13:45:43;36.13;;;20.75;;
50443;SDS011;36370;52.216;21.142;2022-12-07T13:49:53;35.78;;;22.00;;
50443;SDS011;36370;52.216;21.142;2022-12-07T13:54:00;33.72;;;21.92;;
50443;SDS011;36370;52.216;21.142;2022-12-07T13:58:10;46.20;;;25.42;;
50443;SDS011;36370;52.216;21.142;2022-12-07T14:02:24;47.05;;;24.10;;
50443;SDS011;36370;52.216;21.142;2022-12-07T14:06:35;51.78;;;28.50;;
50443;SDS011;36370;52.216;21.142;2022-12-07T14:14:46;43.88;;;25.13;;
50443;SDS011;36370;52.216;21.142;2022-12-07T14:18:49;63.55;;;33.45;;
50443;SDS011;36370;52.216;21.142;2022-12-07T14:22:55;44.88;;;25.80;;
50443;SDS011;36370;52.216;21.142;2022-12-07T14:26:56;49.08;;;25.92;;
50443;SDS011;36370;52.216;21.142;2022-12-07T14:30:59;43.15;;;24.38;;
50443;SDS011;36370;52.216;21.142;2022-12-07T14:35:09;54.70;;;29.10;;
50443;SDS011;36370;52.216;21.142;2022-12-07T14:39:13;46.95;;;26.35;;
50443;SDS011;36370;52.216;21.142;2022-12-07T14:43:15;43.78;;;27.38;;
50443;SDS011;36370;52.216;21.142;2022-12-07T14:47:18;50.45;;;29.90;;
50443;SDS011;36370;52.216;21.142;2022-12-07T14:51:40;38.45;;;24.98;;
50443;SDS011;36370;52.216;21.142;2022-12-07T14:56:03;52.50;;;28.23;;
50443;SDS011;36370;52.216;21.142;2022-12-07T15:00:08;52.38;;;28.23;;
50443;SDS011;36370;52.216;21.142;2022-12-07T15:04:14;48.88;;;28.95;;
50443;SDS011;36370;52.216;21.142;2022-12-07T15:08:17;48.88;;;28.63;;
50443;SDS011;36370;52.216;21.142;2022-12-07T15:12:19;59.17;;;30.42;;
50443;SDS011;36370;52.216;21.142;2022-12-07T15:16:21;62.17;;;30.40;;
50443;SDS011;36370;52.216;21.142;2022-12-07T15:20:23;48.67;;;28.90;;
50443;SDS011;36370;52.216;21.142;2022-12-07T15:24:25;54.05;;;30.95;;
50443;SDS011;36370;52.216;21.142;2022-12-07T15:28:28;57.10;;;32.75;;
50443;SDS011;36370;52.216;21.142;2022-12-07T15:32:29;63.60;;;32.92;;
50443;SDS011;36370;52.216;21.142;2022-12-07T15:36:32;63.75;;;34.15;;
50443;SDS011;36370;52.216;21.142;2022-12-07T15:40:35;61.35;;;34.20;;
50443;SDS011;36370;52.216;21.142;2022-12-07T15:44:37;65.90;;;34.40;;
50443;SDS011;36370;52.216;21.142;2022-12-07T15:48:57;65.93;;;33.83;;
50443;SDS011;36370;52.216;21.142;2022-12-07T15:53:00;67.05;;;33.92;;
50443;SDS011;36370;52.216;21.142;2022-12-07T15:57:01;66.18;;;33.20;;
50443;SDS011;36370;52.216;21.142;2022-12-07T16:01:13;61.72;;;35.75;;
50443;SDS011;36370;52.216;21.142;2022-12-07T16:05:17;61.15;;;33.90;;
50443;SDS011;36370;52.216;21.142;2022-12-07T16:09:19;55.45;;;31.45;;
50443;SDS011;36370;52.216;21.142;2022-12-07T16:13:21;64.00;;;35.03;;
50443;SDS011;36370;52.216;21.142;2022-12-07T16:17:23;56.58;;;32.65;;
50443;SDS011;36370;52.216;21.142;2022-12-07T16:21:24;58.60;;;31.90;;
50443;SDS011;36370;52.216;21.142;2022-12-07T16:25:26;63.25;;;35.40;;
50443;SDS011;36370;52.216;21.142;2022-12-07T16:29:28;61.45;;;33.55;;
50443;SDS011;36370;52.216;21.142;2022-12-07T16:33:30;63.95;;;33.22;;
50443;SDS011;36370;52.216;21.142;2022-12-07T16:37:32;67.38;;;36.10;;
50443;SDS011;36370;52.216;21.142;2022-12-07T16:41:34;60.90;;;34.30;;
50443;SDS011;36370;52.216;21.142;2022-12-07T16:45:36;61.50;;;34.72;;
50443;SDS011;36370;52.216;21.142;2022-12-07T16:49:38;67.50;;;37.97;;
50443;SDS011;36370;52.216;21.142;2022-12-07T16:53:40;66.53;;;34.40;;
50443;SDS011;36370;52.216;21.142;2022-12-07T16:57:43;64.78;;;36.25;;
50443;SDS011;36370;52.216;21.142;2022-12-07T17:01:45;59.28;;;33.63;;
50443;SDS011;36370;52.216;21.142;2022-12-07T17:05:47;59.22;;;32.92;;
50443;SDS011;36370;52.216;21.142;2022-12-07T17:09:51;60.35;;;33.83;;
50443;SDS011;36370;52.216;21.142;2022-12-07T17:13:54;56.90;;;32.58;;
50443;SDS011;36370;52.216;21.142;2022-12-07T17:18:14;55.75;;;31.52;;
50443;SDS011;36370;52.216;21.142;2022-12-07T17:22:16;66.38;;;33.95;;
50443;SDS011;36370;52.216;21.142;2022-12-07T17:26:20;72.68;;;39.60;;
50443;SDS011;36370;52.216;21.142;2022-12-07T17:30:23;75.57;;;43.08;;
50443;SDS011;36370;52.216;21.142;2022-12-07T17:34:25;60.28;;;35.15;;
50443;SDS011;36370;52.216;21.142;2022-12-07T17:38:27;68.10;;;39.15;;
50443;SDS011;36370;52.216;21.142;2022-12-07T17:42:30;64.47;;;36.85;;
50443;SDS011;36370;52.216;21.142;2022-12-07T17:46:37;60.92;;;30.55;;
50443;SDS011;36370;52.216;21.142;2022-12-07T17:50:40;53.63;;;30.50;;
50443;SDS011;36370;52.216;21.142;2022-12-07T17:55:01;62.10;;;33.50;;
50443;SDS011;36370;52.216;21.142;2022-12-07T17:59:04;57.40;;;31.00;;
50443;SDS011;36370;52.216;21.142;2022-12-07T18:03:07;58.08;;;31.30;;
50443;SDS011;36370;52.216;21.142;2022-12-07T18:07:10;56.95;;;29.88;;
50443;SDS011;36370;52.216;21.142;2022-12-07T18:11:12;59.88;;;31.20;;
50443;SDS011;36370;52.216;21.142;2022-12-07T18:15:14;66.15;;;33.70;;
50443;SDS011;36370;52.216;21.142;2022-12-07T18:19:16;53.35;;;29.63;;
50443;SDS011;36370;52.216;21.142;2022-12-07T18:23:18;69.95;;;39.72;;
50443;SDS011;36370;52.216;21.142;2022-12-07T18:27:21;67.93;;;40.13;;
50443;SDS011;36370;52.216;21.142;2022-12-07T18:31:23;65.82;;;37.03;;
50443;SDS011;36370;52.216;21.142;2022-12-07T18:35:25;49.78;;;28.50;;
50443;SDS011;36370;52.216;21.142;2022-12-07T18:39:27;58.38;;;31.10;;
50443;SDS011;36370;52.216;21.142;2022-12-07T18:43:34;45.55;;;25.00;;
50443;SDS011;36370;52.216;21.142;2022-12-07T18:47:37;58.92;;;32.58;;
50443;SDS011;36370;52.216;21.142;2022-12-07T18:51:39;39.45;;;24.65;;
50443;SDS011;36370;52.216;21.142;2022-12-07T18:55:41;42.05;;;24.27;;
50443;SDS011;36370;52.216;21.142;2022-12-07T18:59:43;41.95;;;26.10;;
50443;SDS011;36370;52.216;21.142;2022-12-07T19:03:49;44.97;;;27.02;;
50443;SDS011;36370;52.216;21.142;2022-12-07T19:07:51;37.20;;;21.90;;
50443;SDS011;36370;52.216;21.142;2022-12-07T19:11:53;125.00;;;56.70;;
50443;SDS011;36370;52.216;21.142;2022-12-07T19:15:57;75.65;;;38.30;;
50443;SDS011;36370;52.216;21.142;2022-12-07T19:19:58;59.25;;;31.27;;
50443;SDS011;36370;52.216;21.142;2022-12-07T19:24:04;71.72;;;40.53;;
50443;SDS011;36370;52.216;21.142;2022-12-07T19:28:07;46.28;;;26.00;;
50443;SDS011;36370;52.216;21.142;2022-12-07T19:32:09;35.53;;;23.13;;
50443;SDS011;36370;52.216;21.142;2022-12-07T19:36:12;37.75;;;23.92;;
50443;SDS011;36370;52.216;21.142;2022-12-07T19:40:13;36.10;;;25.20;;
50443;SDS011;36370;52.216;21.142;2022-12-07T19:44:16;38.60;;;22.88;;
50443;SDS011;36370;52.216;21.142;2022-12-07T19:48:20;37.85;;;22.40;;
50443;SDS011;36370;52.216;21.142;2022-12-07T19:52:22;45.38;;;25.75;;
50443;SDS011;36370;52.216;21.142;2022-12-07T19:56:24;38.10;;;23.17;;
50443;SDS011;36370;52.216;21.142;2022-12-07T20:00:30;38.95;;;23.77;;
50443;SDS011;36370;52.216;21.142;2022-12-07T20:04:32;40.58;;;24.85;;
50443;SDS011;36370;52.216;21.142;2022-12-07T20:08:35;37.75;;;23.00;;
50443;SDS011;36370;52.216;21.142;2022-12-07T20:12:37;29.63;;;20.10;;
50443;SDS011;36370;52.216;21.142;2022-12-07T20:16:58;27.33;;;16.88;;
50443;SDS011;36370;52.216;21.142;2022-12-07T20:21:00;46.53;;;25.67;;
50443;SDS011;36370;52.216;21.142;2022-12-07T20:25:02;28.00;;;16.42;;
50443;SDS011;36370;52.216;21.142;2022-12-07T20:29:08;47.78;;;27.23;;
50443;SDS011;36370;52.216;21.142;2022-12-07T20:33:18;28.00;;;17.40;;
50443;SDS011;36370;52.216;21.142;2022-12-07T20:37:21;29.60;;;18.00;;
50443;SDS011;36370;52.216;21.142;2022-12-07T20:41:23;45.60;;;23.48;;
50443;SDS011;36370;52.216;21.142;2022-12-07T20:45:46;31.60;;;17.67;;
50443;SDS011;36370;52.216;21.142;2022-12-07T20:49:50;31.08;;;16.38;;
50443;SDS011;36370;52.216;21.142;2022-12-07T20:53:51;27.90;;;15.98;;
50443;SDS011;36370;52.216;21.142;2022-12-07T20:57:53;34.60;;;16.95;;
50443;SDS011;36370;52.216;21.142;2022-12-07T21:01:56;23.60;;;14.40;;
50443;SDS011;36370;52.216;21.142;2022-12-07T21:06:00;23.60;;;14.90;;
50443;SDS011;36370;52.216;21.142;2022-12-07T21:10:03;26.13;;;13.88;;
50443;SDS011;36370;52.216;21.142;2022-12-07T21:14:05;25.63;;;15.35;;
50443;SDS011;36370;52.216;21.142;2022-12-07T21:18:07;31.77;;;13.57;;
50443;SDS011;36370;52.216;21.142;2022-12-07T21:22:09;25.20;;;13.43;;
50443;SDS011;36370;52.216;21.142;2022-12-07T21:26:12;29.02;;;14.10;;
50443;SDS011;36370;52.216;21.142;2022-12-07T21:30:15;26.50;;;13.05;;
50443;SDS011;36370;52.216;21.142;2022-12-07T21:34:17;25.77;;;14.35;;
50443;SDS011;36370;52.216;21.142;2022-12-07T21:38:19;27.42;;;13.82;;
50443;SDS011;36370;52.216;21.142;2022-12-07T21:42:21;50.90;;;23.25;;
50443;SDS011;36370;52.216;21.142;2022-12-07T21:46:23;19.80;;;11.65;;
50443;SDS011;36370;52.216;21.142;2022-12-07T21:50:34;23.08;;;11.90;;
50443;SDS011;36370;52.216;21.142;2022-12-07T21:54:39;23.50;;;11.30;;
50443;SDS011;36370;52.216;21.142;2022-12-07T21:58:43;28.90;;;14.55;;
50443;SDS011;36370;52.216;21.142;2022-12-07T22:02:45;30.17;;;14.57;;
50443;SDS011;36370;52.216;21.142;2022-12-07T22:06:48;22.90;;;11.70;;
50443;SDS011;36370;52.216;21.142;2022-12-07T22:10:50;21.60;;;10.73;;
50443;SDS011;36370;52.216;21.142;2022-12-07T22:14:52;26.45;;;13.10;;
50443;SDS011;36370;52.216;21.142;2022-12-07T22:19:10;66.80;;;26.85;;
50443;SDS011;36370;52.216;21.142;2022-12-07T22:23:12;30.95;;;13.13;;
50443;SDS011;36370;52.216;21.142;2022-12-07T22:27:14;45.63;;;22.13;;
50443;SDS011;36370;52.216;21.142;2022-12-07T22:31:17;29.98;;;14.57;;
50443;SDS011;36370;52.216;21.142;2022-12-07T22:35:19;17.40;;;8.90;;
50443;SDS011;36370;52.216;21.142;2022-12-07T22:39:21;32.97;;;15.60;;
50443;SDS011;36370;52.216;21.142;2022-12-07T22:43:23;80.60;;;30.92;;
50443;SDS011;36370;52.216;21.142;2022-12-07T22:47:26;29.83;;;12.65;;
50443;SDS011;36370;52.216;21.142;2022-12-07T22:51:31;24.20;;;12.77;;
50443;SDS011;36370;52.216;21.142;2022-12-07T22:55:38;23.30;;;11.75;;
50443;SDS011;36370;52.216;21.142;2022-12-07T22:59:40;27.65;;;12.38;;
50443;SDS011;36370;52.216;21.142;2022-12-07T23:03:42;21.85;;;10.88;;
50443;SDS011;36370;52.216;21.142;2022-12-07T23:07:45;18.58;;;10.52;;
50443;SDS011;36370;52.216;21.142;2022-12-07T23:11:47;20.45;;;11.32;;
50443;SDS011;36370;52.216;21.142;2022-12-07T23:16:09;21.10;;;10.50;;
50443;SDS011;36370;52.216;21.142;2022-12-07T23:20:12;22.88;;;9.73;;
50443;SDS011;36370;52.216;21.142;2022-12-07T23:24:15;18.90;;;10.85;;
50443;SDS011;36370;52.216;21.142;2022-12-07T23:28:17;28.77;;;15.30;;
50443;SDS011;36370;52.216;21.142;2022-12-07T23:32:19;19.10;;;10.50;;
50443;SDS011;36370;52.216;21.142;2022-12-07T23:36:22;18.25;;;11.32;;
50443;SDS011;36370;52.216;21.142;2022-12-07T23:40:25;32.63;;;14.00;;
50443;SDS011;36370;52.216;21.142;2022-12-07T23:44:27;27.40;;;12.07;;
50443;SDS011;36370;52.216;21.142;2022-12-07T23:48:29;18.75;;;10.90;;
50443;SDS011;36370;52.216;21.142;2022-12-07T23:52:30;17.92;;;10.52;;
50443;SDS011;36370;52.216;21.142;2022-12-07T23:56:32;22.90;;;10.98;;
